sensor_id;sensor_type;location;lat;lon;timestamp;pressure;altitude;pressure_sealevel;temperature;humidity
72585;BME280;60618;40.084;32.908;2023-02-28T00:00:53;90308.84;;;8.98;50.09
72585;BME280;60618;40.084;32.908;2023-02-28T00:03:20;90298.25;;;9.16;49.62
72585;BME280;60618;40.084;32.908;2023-02-28T00:05:47;90319.94;;;9.15;49.61
72585;BME280;60618;40.084;32.908;2023-02-28T00:08:14;90333.84;;;9.19;49.87
72585;BME280;60618;40.084;32.908;2023-02-28T00:10:41;90311.22;;;9.05;49.75
72585;BME280;60618;40.084;32.908;2023-02-28T00:13:07;90311.53;;;9.25;49.57
72585;BME280;60618;40.084;32.908;2023-02-28T00:15:34;90309.78;;;9.31;49.49
72585;BME280;60618;40.084;32.908;2023-02-28T00:18:02;90304.47;;;9.31;49.30
72585;BME280;60618;40.084;32.908;2023-02-28T00:20:29;90312.44;;;9.31;49.12
72585;BME280;60618;40.084;32.908;2023-02-28T00:22:56;90316.00;;;9.37;49.47
72585;BME280;60618;40.084;32.908;2023-02-28T00:25:24;90314.63;;;9.05;50.01
72585;BME280;60618;40.084;32.908;2023-02-28T00:27:51;90315.81;;;9.14;49.43
72585;BME280;60618;40.084;32.908;2023-02-28T00:30:21;90317.72;;;9.04;50.77
72585;BME280;60618;40.084;32.908;2023-02-28T00:32:49;90320.53;;;9.00;50.60
72585;BME280;60618;40.084;32.908;2023-02-28T00:35:17;90326.72;;;9.06;50.16
72585;BME280;60618;40.084;32.908;2023-02-28T00:37:44;90318.19;;;9.12;49.93
72585;BME280;60618;40.084;32.908;2023-02-28T00:40:11;90318.34;;;9.17;49.41
72585;BME280;60618;40.084;32.908;2023-02-28T00:42:38;90322.16;;;9.25;49.52
72585;BME280;60618;40.084;32.908;2023-02-28T00:45:05;90314.19;;;9.34;49.25
72585;BME280;60618;40.084;32.908;2023-02-28T00:47:33;90320.69;;;9.24;50.23
72585;BME280;60618;40.084;32.908;2023-02-28T00:50:00;90333.13;;;9.18;50.16
72585;BME280;60618;40.084;32.908;2023-02-28T00:52:27;90318.03;;;9.15;50.13
72585;BME280;60618;40.084;32.908;2023-02-28T00:54:54;90308.00;;;9.19;49.96
72585;BME280;60618;40.084;32.908;2023-02-28T00:57:21;90304.75;;;9.24;49.60
72585;BME280;60618;40.084;32.908;2023-02-28T00:59:48;90310.22;;;9.30;49.26
72585;BME280;60618;40.084;32.908;2023-02-28T01:02:15;90308.31;;;9.39;49.23
72585;BME280;60618;40.084;32.908;2023-02-28T01:04:42;90322.19;;;9.44;49.72
72585;BME280;60618;40.084;32.908;2023-02-28T01:07:09;90328.31;;;8.76;51.13
72585;BME280;60618;40.084;32.908;2023-02-28T01:09:36;90319.78;;;8.41;52.15
72585;BME280;60618;40.084;32.908;2023-02-28T01:12:03;90322.34;;;8.45;52.73
72585;BME280;60618;40.084;32.908;2023-02-28T01:14:30;90309.03;;;8.36;52.66
72585;BME280;60618;40.084;32.908;2023-02-28T01:16:57;90322.91;;;8.49;51.47
72585;BME280;60618;40.084;32.908;2023-02-28T01:19:24;90310.00;;;8.69;51.32
72585;BME280;60618;40.084;32.908;2023-02-28T01:21:51;90308.56;;;8.87;50.78
72585;BME280;60618;40.084;32.908;2023-02-28T01:24:18;90306.19;;;8.89;50.79
72585;BME280;60618;40.084;32.908;2023-02-28T01:26:45;90311.81;;;8.91;50.13
72585;BME280;60618;40.084;32.908;2023-02-28T01:29:12;90307.22;;;8.82;50.92
72585;BME280;60618;40.084;32.908;2023-02-28T01:31:39;90312.69;;;8.97;50.79
72585;BME280;60618;40.084;32.908;2023-02-28T01:34:05;90322.47;;;9.09;50.27
72585;BME280;60618;40.084;32.908;2023-02-28T01:36:32;90321.00;;;9.17;49.96
72585;BME280;60618;40.084;32.908;2023-02-28T01:38:59;90321.59;;;9.21;50.32
72585;BME280;60618;40.084;32.908;2023-02-28T01:41:29;90330.31;;;9.22;50.60
72585;BME280;60618;40.084;32.908;2023-02-28T01:47:06;90329.28;;;9.19;49.78
72585;BME280;60618;40.084;32.908;2023-02-28T01:49:33;90329.56;;;9.21;49.54
72585;BME280;60618;40.084;32.908;2023-02-28T01:52:00;90327.91;;;8.96;49.92
72585;BME280;60618;40.084;32.908;2023-02-28T01:54:30;90330.72;;;9.02;50.25
72585;BME280;60618;40.084;32.908;2023-02-28T01:57:02;90332.78;;;9.07;50.16
72585;BME280;60618;40.084;32.908;2023-02-28T01:59:36;90330.84;;;8.98;50.21
72585;BME280;60618;40.084;32.908;2023-02-28T02:02:04;90330.69;;;8.84;50.49
72585;BME280;60618;40.084;32.908;2023-02-28T02:04:41;90327.25;;;8.65;52.02
72585;BME280;60618;40.084;32.908;2023-02-28T02:07:13;90336.88;;;8.80;50.42
72585;BME280;60618;40.084;32.908;2023-02-28T02:09:40;90344.56;;;8.88;50.39
72585;BME280;60618;40.084;32.908;2023-02-28T02:12:20;90345.16;;;8.92;50.82
72585;BME280;60618;40.084;32.908;2023-02-28T02:17:32;90357.78;;;8.07;53.81
72585;BME280;60618;40.084;32.908;2023-02-28T02:20:26;90357.50;;;8.05;53.78
72585;BME280;60618;40.084;32.908;2023-02-28T02:40:18;90364.44;;;7.24;56.17
72585;BME280;60618;40.084;32.908;2023-02-28T02:42:58;90376.63;;;7.56;55.11
72585;BME280;60618;40.084;32.908;2023-02-28T02:45:38;90380.66;;;7.83;54.15
72585;BME280;60618;40.084;32.908;2023-02-28T02:48:09;90383.09;;;7.77;54.92
72585;BME280;60618;40.084;32.908;2023-02-28T02:50:41;90385.28;;;7.91;54.17
72585;BME280;60618;40.084;32.908;2023-02-28T02:53:11;90390.50;;;8.04;53.24
72585;BME280;60618;40.084;32.908;2023-02-28T02:55:44;90391.09;;;8.08;53.90
72585;BME280;60618;40.084;32.908;2023-02-28T02:58:16;90381.81;;;7.60;55.28
72585;BME280;60618;40.084;32.908;2023-02-28T03:00:50;90380.50;;;7.43;55.71
72585;BME280;60618;40.084;32.908;2023-02-28T03:03:19;90388.41;;;7.55;55.40
72585;BME280;60618;40.084;32.908;2023-02-28T03:05:50;90385.19;;;7.60;55.63
72585;BME280;60618;40.084;32.908;2023-02-28T03:08:17;90385.56;;;7.72;54.95
72585;BME280;60618;40.084;32.908;2023-02-28T03:10:46;90382.44;;;7.86;54.27
72585;BME280;60618;40.084;32.908;2023-02-28T03:30:03;90388.00;;;7.44;55.55
72585;BME280;60618;40.084;32.908;2023-02-28T03:32:38;90389.41;;;7.36;56.01
72585;BME280;60618;40.084;32.908;2023-02-28T03:35:30;90394.53;;;7.18;56.82
72585;BME280;60618;40.084;32.908;2023-02-28T03:38:12;90398.53;;;7.35;56.21
72585;BME280;60618;40.084;32.908;2023-02-28T03:40:48;90398.44;;;7.60;55.45
72585;BME280;60618;40.084;32.908;2023-02-28T03:43:22;90393.09;;;7.73;55.08
72585;BME280;60618;40.084;32.908;2023-02-28T03:45:52;90400.00;;;7.71;55.26
72585;BME280;60618;40.084;32.908;2023-02-28T03:48:39;90408.34;;;7.82;55.13
72585;BME280;60618;40.084;32.908;2023-02-28T03:51:11;90409.94;;;8.01;54.38
72585;BME280;60618;40.084;32.908;2023-02-28T03:54:21;90411.19;;;8.09;53.17
72585;BME280;60618;40.084;32.908;2023-02-28T03:56:45;90412.78;;;7.85;53.62
72585;BME280;60618;40.084;32.908;2023-02-28T03:59:22;90429.66;;;7.78;55.28
72585;BME280;60618;40.084;32.908;2023-02-28T04:01:52;90441.53;;;7.52;55.86
72585;BME280;60618;40.084;32.908;2023-02-28T04:04:19;90446.38;;;7.66;55.57
72585;BME280;60618;40.084;32.908;2023-02-28T04:06:52;90449.19;;;7.72;54.67
72585;BME280;60618;40.084;32.908;2023-02-28T04:09:19;90439.72;;;7.83;55.00
72585;BME280;60618;40.084;32.908;2023-02-28T04:11:53;90438.13;;;7.86;55.40
72585;BME280;60618;40.084;32.908;2023-02-28T04:14:20;90450.22;;;7.87;55.00
72585;BME280;60618;40.084;32.908;2023-02-28T04:16:47;90459.09;;;7.93;54.25
72585;BME280;60618;40.084;32.908;2023-02-28T04:19:14;90454.16;;;8.04;54.21
72585;BME280;60618;40.084;32.908;2023-02-28T04:21:43;90458.38;;;7.92;53.53
72585;BME280;60618;40.084;32.908;2023-02-28T04:24:13;90463.16;;;8.07;53.14
72585;BME280;60618;40.084;32.908;2023-02-28T04:26:43;90466.56;;;8.07;52.79
72585;BME280;60618;40.084;32.908;2023-02-28T04:29:12;90473.63;;;7.88;54.33
72585;BME280;60618;40.084;32.908;2023-02-28T04:31:40;90475.38;;;8.04;54.57
72585;BME280;60618;40.084;32.908;2023-02-28T04:34:07;90478.03;;;8.26;53.93
72585;BME280;60618;40.084;32.908;2023-02-28T04:36:33;90478.72;;;8.17;54.31
72585;BME280;60618;40.084;32.908;2023-02-28T04:39:00;90467.44;;;8.04;54.93
72585;BME280;60618;40.084;32.908;2023-02-28T04:41:27;90489.69;;;8.07;55.37
72585;BME280;60618;40.084;32.908;2023-02-28T04:43:58;90484.00;;;7.95;54.79
72585;BME280;60618;40.084;32.908;2023-02-28T04:46:28;90487.97;;;7.91;54.12
72585;BME280;60618;40.084;32.908;2023-02-28T04:48:54;90480.69;;;7.69;54.86
72585;BME280;60618;40.084;32.908;2023-02-28T04:51:22;90489.59;;;7.76;55.16
72585;BME280;60618;40.084;32.908;2023-02-28T04:53:50;90493.88;;;7.95;54.29
72585;BME280;60618;40.084;32.908;2023-02-28T04:56:17;90510.81;;;8.10;54.75
72585;BME280;60618;40.084;32.908;2023-02-28T04:58:45;90506.34;;;7.85;55.05
72585;BME280;60618;40.084;32.908;2023-02-28T05:01:22;90507.13;;;7.73;55.34
72585;BME280;60618;40.084;32.908;2023-02-28T05:03:50;90505.59;;;7.85;55.30
72585;BME280;60618;40.084;32.908;2023-02-28T05:06:18;90514.94;;;7.77;55.83
72585;BME280;60618;40.084;32.908;2023-02-28T05:08:46;90520.88;;;7.81;55.61
72585;BME280;60618;40.084;32.908;2023-02-28T05:11:19;90522.97;;;7.86;56.82
72585;BME280;60618;40.084;32.908;2023-02-28T05:13:46;90530.88;;;7.98;56.90
72585;BME280;60618;40.084;32.908;2023-02-28T05:16:14;90528.97;;;8.34;56.98
72585;BME280;60618;40.084;32.908;2023-02-28T05:18:41;90526.94;;;8.60;56.59
72585;BME280;60618;40.084;32.908;2023-02-28T05:21:28;90533.06;;;8.69;57.88
72585;BME280;60618;40.084;32.908;2023-02-28T05:23:58;90538.19;;;8.64;58.52
72585;BME280;60618;40.084;32.908;2023-02-28T05:26:26;90542.88;;;8.60;58.46
72585;BME280;60618;40.084;32.908;2023-02-28T05:28:53;90543.31;;;8.58;59.24
72585;BME280;60618;40.084;32.908;2023-02-28T05:31:21;90554.53;;;8.62;59.98
72585;BME280;60618;40.084;32.908;2023-02-28T05:33:48;90556.91;;;8.60;60.08
72585;BME280;60618;40.084;32.908;2023-02-28T05:36:15;90560.94;;;8.65;61.34
72585;BME280;60618;40.084;32.908;2023-02-28T05:38:42;90561.97;;;8.67;61.32
72585;BME280;60618;40.084;32.908;2023-02-28T05:41:10;90563.63;;;8.74;63.39
72585;BME280;60618;40.084;32.908;2023-02-28T05:43:38;90569.75;;;8.84;65.29
72585;BME280;60618;40.084;32.908;2023-02-28T05:46:05;90560.34;;;8.92;66.45
72585;BME280;60618;40.084;32.908;2023-02-28T05:48:34;90574.28;;;9.05;67.74
72585;BME280;60618;40.084;32.908;2023-02-28T05:51:02;90580.53;;;9.11;68.72
72585;BME280;60618;40.084;32.908;2023-02-28T05:53:30;90579.84;;;9.20;69.46
72585;BME280;60618;40.084;32.908;2023-02-28T05:55:58;90587.84;;;9.29;66.67
72585;BME280;60618;40.084;32.908;2023-02-28T05:58:25;90589.34;;;9.30;66.68
72585;BME280;60618;40.084;32.908;2023-02-28T06:00:52;90583.28;;;9.29;66.88
72585;BME280;60618;40.084;32.908;2023-02-28T06:03:19;90585.53;;;9.40;65.33
72585;BME280;60618;40.084;32.908;2023-02-28T06:05:46;90588.97;;;9.50;65.40
72585;BME280;60618;40.084;32.908;2023-02-28T06:08:13;90590.47;;;9.60;66.60
72585;BME280;60618;40.084;32.908;2023-02-28T06:10:42;90592.56;;;9.65;68.74
72585;BME280;60618;40.084;32.908;2023-02-28T06:13:09;90591.41;;;9.66;67.62
72585;BME280;60618;40.084;32.908;2023-02-28T06:15:36;90585.50;;;9.71;67.23
72585;BME280;60618;40.084;32.908;2023-02-28T06:18:03;90588.16;;;9.62;70.19
72585;BME280;60618;40.084;32.908;2023-02-28T06:20:30;90585.31;;;9.56;70.75
72585;BME280;60618;40.084;32.908;2023-02-28T06:22:57;90578.91;;;9.45;70.56
72585;BME280;60618;40.084;32.908;2023-02-28T06:25:25;90581.66;;;9.32;71.15
72585;BME280;60618;40.084;32.908;2023-02-28T06:27:53;90558.44;;;9.23;73.00
72585;BME280;60618;40.084;32.908;2023-02-28T06:30:20;90559.38;;;8.76;73.50
72585;BME280;60618;40.084;32.908;2023-02-28T06:32:47;90560.25;;;8.73;74.49
72585;BME280;60618;40.084;32.908;2023-02-28T06:35:14;90570.31;;;8.22;72.70
72585;BME280;60618;40.084;32.908;2023-02-28T06:37:41;90580.13;;;8.34;70.06
72585;BME280;60618;40.084;32.908;2023-02-28T06:40:08;90582.59;;;8.29;72.40
72585;BME280;60618;40.084;32.908;2023-02-28T06:42:35;90577.97;;;8.20;71.71
72585;BME280;60618;40.084;32.908;2023-02-28T06:45:02;90578.88;;;7.91;71.79
72585;BME280;60618;40.084;32.908;2023-02-28T06:47:30;90566.63;;;7.59;71.24
72585;BME280;60618;40.084;32.908;2023-02-28T06:49:57;90562.06;;;7.09;70.83
72585;BME280;60618;40.084;32.908;2023-02-28T06:52:24;90574.41;;;6.74;71.99
72585;BME280;60618;40.084;32.908;2023-02-28T06:54:51;90582.75;;;6.60;71.87
72585;BME280;60618;40.084;32.908;2023-02-28T06:57:18;90570.03;;;6.54;72.89
72585;BME280;60618;40.084;32.908;2023-02-28T06:59:44;90570.69;;;6.59;71.54
72585;BME280;60618;40.084;32.908;2023-02-28T07:02:11;90568.72;;;6.88;69.95
72585;BME280;60618;40.084;32.908;2023-02-28T07:04:38;90570.75;;;7.09;69.21
72585;BME280;60618;40.084;32.908;2023-02-28T07:07:06;90567.06;;;7.20;68.21
72585;BME280;60618;40.084;32.908;2023-02-28T07:09:35;90564.41;;;7.32;65.98
72585;BME280;60618;40.084;32.908;2023-02-28T07:12:02;90567.28;;;7.51;65.78
72585;BME280;60618;40.084;32.908;2023-02-28T07:14:29;90555.31;;;7.21;67.99
72585;BME280;60618;40.084;32.908;2023-02-28T07:16:56;90553.50;;;7.30;67.72
72585;BME280;60618;40.084;32.908;2023-02-28T07:19:23;90546.59;;;7.07;69.24
72585;BME280;60618;40.084;32.908;2023-02-28T07:21:50;90543.75;;;7.15;69.84
72585;BME280;60618;40.084;32.908;2023-02-28T07:24:17;90552.00;;;6.91;69.87
72585;BME280;60618;40.084;32.908;2023-02-28T07:26:43;90548.41;;;6.98;71.63
72585;BME280;60618;40.084;32.908;2023-02-28T07:29:10;90544.06;;;7.17;71.26
72585;BME280;60618;40.084;32.908;2023-02-28T07:31:37;90535.16;;;7.36;71.88
72585;BME280;60618;40.084;32.908;2023-02-28T07:34:04;90541.63;;;7.48;71.67
72585;BME280;60618;40.084;32.908;2023-02-28T07:36:31;90539.81;;;7.45;72.43
72585;BME280;60618;40.084;32.908;2023-02-28T07:38:58;90538.94;;;7.60;72.22
72585;BME280;60618;40.084;32.908;2023-02-28T07:41:25;90542.72;;;7.72;72.23
72585;BME280;60618;40.084;32.908;2023-02-28T07:43:53;90537.28;;;7.88;72.49
72585;BME280;60618;40.084;32.908;2023-02-28T07:46:21;90532.47;;;8.09;71.55
72585;BME280;60618;40.084;32.908;2023-02-28T07:48:48;90525.88;;;8.13;72.02
72585;BME280;60618;40.084;32.908;2023-02-28T07:51:15;90524.69;;;8.14;73.78
72585;BME280;60618;40.084;32.908;2023-02-28T07:53:42;90530.56;;;8.31;73.90
72585;BME280;60618;40.084;32.908;2023-02-28T07:56:08;90519.31;;;8.40;74.69
72585;BME280;60618;40.084;32.908;2023-02-28T07:58:36;90528.94;;;8.68;73.61
72585;BME280;60618;40.084;32.908;2023-02-28T08:01:07;90527.41;;;8.89;73.13
72585;BME280;60618;40.084;32.908;2023-02-28T08:03:35;90522.75;;;9.02;69.43
72585;BME280;60618;40.084;32.908;2023-02-28T08:06:06;90515.91;;;9.23;68.42
72585;BME280;60618;40.084;32.908;2023-02-28T08:08:34;90520.94;;;9.30;68.72
72585;BME280;60618;40.084;32.908;2023-02-28T08:11:02;90522.31;;;9.35;68.32
72585;BME280;60618;40.084;32.908;2023-02-28T08:13:29;90521.13;;;9.36;67.54
72585;BME280;60618;40.084;32.908;2023-02-28T08:15:56;90519.81;;;9.41;67.64
72585;BME280;60618;40.084;32.908;2023-02-28T08:18:24;90518.81;;;9.56;67.90
72585;BME280;60618;40.084;32.908;2023-02-28T08:20:50;90516.63;;;9.64;67.26
72585;BME280;60618;40.084;32.908;2023-02-28T08:23:17;90518.69;;;9.69;67.66
72585;BME280;60618;40.084;32.908;2023-02-28T08:25:44;90511.91;;;9.77;67.91
72585;BME280;60618;40.084;32.908;2023-02-28T08:28:11;90504.22;;;9.79;68.89
72585;BME280;60618;40.084;32.908;2023-02-28T08:30:38;90512.81;;;9.83;68.31
72585;BME280;60618;40.084;32.908;2023-02-28T08:33:05;90510.91;;;10.02;68.75
72585;BME280;60618;40.084;32.908;2023-02-28T08:35:35;90511.38;;;10.01;67.65
72585;BME280;60618;40.084;32.908;2023-02-28T08:38:02;90506.63;;;10.05;67.32
72585;BME280;60618;40.084;32.908;2023-02-28T08:40:29;90503.09;;;10.08;68.14
72585;BME280;60618;40.084;32.908;2023-02-28T08:42:56;90497.59;;;10.02;68.01
72585;BME280;60618;40.084;32.908;2023-02-28T08:45:23;90499.53;;;9.92;67.33
72585;BME280;60618;40.084;32.908;2023-02-28T08:47:50;90495.97;;;10.05;67.96
72585;BME280;60618;40.084;32.908;2023-02-28T08:50:17;90496.72;;;9.96;67.05
72585;BME280;60618;40.084;32.908;2023-02-28T08:52:44;90491.84;;;9.94;67.77
72585;BME280;60618;40.084;32.908;2023-02-28T08:55:11;90492.44;;;10.08;66.43
72585;BME280;60618;40.084;32.908;2023-02-28T08:57:38;90492.28;;;10.20;66.46
72585;BME280;60618;40.084;32.908;2023-02-28T09:00:05;90486.97;;;10.39;66.66
72585;BME280;60618;40.084;32.908;2023-02-28T09:02:32;90484.19;;;10.51;66.34
72585;BME280;60618;40.084;32.908;2023-02-28T09:04:59;90479.69;;;10.67;66.95
72585;BME280;60618;40.084;32.908;2023-02-28T09:07:26;90478.44;;;10.86;64.39
72585;BME280;60618;40.084;32.908;2023-02-28T09:09:53;90475.25;;;10.64;64.38
72585;BME280;60618;40.084;32.908;2023-02-28T09:12:33;90473.72;;;10.90;63.95
72585;BME280;60618;40.084;32.908;2023-02-28T09:15:00;90479.50;;;10.89;62.43
72585;BME280;60618;40.084;32.908;2023-02-28T09:17:27;90472.25;;;10.89;61.95
72585;BME280;60618;40.084;32.908;2023-02-28T09:19:57;90472.53;;;10.91;61.69
72585;BME280;60618;40.084;32.908;2023-02-28T09:22:24;90476.66;;;10.92;61.23
72585;BME280;60618;40.084;32.908;2023-02-28T09:24:51;90471.78;;;10.91;61.79
72585;BME280;60618;40.084;32.908;2023-02-28T09:27:17;90462.56;;;11.01;62.13
72585;BME280;60618;40.084;32.908;2023-02-28T09:29:44;90466.81;;;11.17;61.71
72585;BME280;60618;40.084;32.908;2023-02-28T09:32:11;90459.34;;;11.30;61.93
72585;BME280;60618;40.084;32.908;2023-02-28T09:34:38;90462.97;;;11.51;61.07
72585;BME280;60618;40.084;32.908;2023-02-28T09:37:05;90463.16;;;11.38;61.20
72585;BME280;60618;40.084;32.908;2023-02-28T09:39:32;90460.63;;;11.68;60.55
72585;BME280;60618;40.084;32.908;2023-02-28T09:42:02;90462.97;;;11.99;59.77
72585;BME280;60618;40.084;32.908;2023-02-28T09:44:38;90460.06;;;12.11;59.72
72585;BME280;60618;40.084;32.908;2023-02-28T09:49:46;90443.66;;;12.72;58.44
72585;BME280;60618;40.084;32.908;2023-02-28T09:52:16;90447.72;;;12.67;57.64
72585;BME280;60618;40.084;32.908;2023-02-28T09:54:44;90442.25;;;12.47;58.39
72585;BME280;60618;40.084;32.908;2023-02-28T10:05:12;90424.16;;;13.01;58.32
72585;BME280;60618;40.084;32.908;2023-02-28T10:10:20;90422.41;;;13.27;55.69
72585;BME280;60618;40.084;32.908;2023-02-28T10:12:52;90423.47;;;12.86;56.38
72585;BME280;60618;40.084;32.908;2023-02-28T10:15:21;90408.69;;;13.05;56.11
72585;BME280;60618;40.084;32.908;2023-02-28T10:17:54;90407.50;;;12.91;57.02
72585;BME280;60618;40.084;32.908;2023-02-28T10:20:38;90406.00;;;13.05;56.89
72585;BME280;60618;40.084;32.908;2023-02-28T10:23:28;90398.84;;;12.82;56.40
72585;BME280;60618;40.084;32.908;2023-02-28T10:26:12;90397.25;;;12.90;56.25
72585;BME280;60618;40.084;32.908;2023-02-28T10:28:39;90389.22;;;13.04;55.24
72585;BME280;60618;40.084;32.908;2023-02-28T10:31:11;90381.94;;;13.05;56.14
72585;BME280;60618;40.084;32.908;2023-02-28T10:33:41;90374.56;;;13.00;55.94
72585;BME280;60618;40.084;32.908;2023-02-28T10:36:12;90364.97;;;12.93;56.20
72585;BME280;60618;40.084;32.908;2023-02-28T10:38:40;90363.97;;;12.91;56.33
72585;BME280;60618;40.084;32.908;2023-02-28T10:43:44;90358.13;;;12.72;57.03
72585;BME280;60618;40.084;32.908;2023-02-28T10:46:15;90355.44;;;12.57;58.25
72585;BME280;60618;40.084;32.908;2023-02-28T10:48:56;90354.91;;;12.53;58.40
72585;BME280;60618;40.084;32.908;2023-02-28T10:51:24;90345.78;;;12.60;58.14
72585;BME280;60618;40.084;32.908;2023-02-28T10:53:53;90352.78;;;12.72;58.01
72585;BME280;60618;40.084;32.908;2023-02-28T10:56:30;90354.13;;;12.82;57.51
72585;BME280;60618;40.084;32.908;2023-02-28T11:01:47;90355.19;;;13.05;56.90
72585;BME280;60618;40.084;32.908;2023-02-28T11:06:58;90352.03;;;13.21;56.05
72585;BME280;60618;40.084;32.908;2023-02-28T11:09:37;90347.78;;;13.50;55.11
72585;BME280;60618;40.084;32.908;2023-02-28T11:14:51;90339.06;;;13.75;53.75
72585;BME280;60618;40.084;32.908;2023-02-28T11:17:23;90330.63;;;13.82;53.47
72585;BME280;60618;40.084;32.908;2023-02-28T11:19:53;90327.09;;;13.50;53.29
72585;BME280;60618;40.084;32.908;2023-02-28T11:22:24;90325.41;;;13.73;52.16
72585;BME280;60618;40.084;32.908;2023-02-28T11:24:55;90322.97;;;13.96;53.02
72585;BME280;60618;40.084;32.908;2023-02-28T11:27:46;90326.41;;;14.22;52.84
72585;BME280;60618;40.084;32.908;2023-02-28T11:30:31;90324.47;;;14.48;53.13
72585;BME280;60618;40.084;32.908;2023-02-28T11:32:58;90331.03;;;14.22;52.03
72585;BME280;60618;40.084;32.908;2023-02-28T11:35:38;90336.41;;;14.01;51.33
72585;BME280;60618;40.084;32.908;2023-02-28T11:38:12;90329.28;;;14.18;51.03
72585;BME280;60618;40.084;32.908;2023-02-28T11:41:06;90329.00;;;14.42;50.86
72585;BME280;60618;40.084;32.908;2023-02-28T11:43:55;90329.84;;;14.28;49.46
72585;BME280;60618;40.084;32.908;2023-02-28T11:46:30;90322.97;;;14.22;49.91
72585;BME280;60618;40.084;32.908;2023-02-28T11:57:52;90320.09;;;15.74;49.43
72585;BME280;60618;40.084;32.908;2023-02-28T12:03:44;90309.19;;;16.16;48.34
72585;BME280;60618;40.084;32.908;2023-02-28T12:06:15;90313.81;;;16.05;46.66
72585;BME280;60618;40.084;32.908;2023-02-28T12:15:24;90307.25;;;15.41;48.96
72585;BME280;60618;40.084;32.908;2023-02-28T12:18:01;90319.44;;;15.42;49.14
72585;BME280;60618;40.084;32.908;2023-02-28T12:20:38;90313.63;;;15.49;49.56
72585;BME280;60618;40.084;32.908;2023-02-28T12:28:41;90309.56;;;15.65;49.78
72585;BME280;60618;40.084;32.908;2023-02-28T12:31:31;90307.53;;;15.54;49.17
72585;BME280;60618;40.084;32.908;2023-02-28T12:37:07;90309.78;;;15.13;48.12
72585;BME280;60618;40.084;32.908;2023-02-28T12:39:42;90303.81;;;14.92;47.28
72585;BME280;60618;40.084;32.908;2023-02-28T12:42:42;90309.44;;;14.99;48.04
72585;BME280;60618;40.084;32.908;2023-02-28T12:45:27;90306.84;;;14.73;47.97
72585;BME280;60618;40.084;32.908;2023-02-28T12:48:01;90311.75;;;14.75;48.36
72585;BME280;60618;40.084;32.908;2023-02-28T12:50:30;90310.06;;;14.77;48.46
72585;BME280;60618;40.084;32.908;2023-02-28T12:58:43;90307.06;;;14.38;49.06
72585;BME280;60618;40.084;32.908;2023-02-28T13:01:42;90310.22;;;14.11;50.04
72585;BME280;60618;40.084;32.908;2023-02-28T13:07:20;90295.09;;;14.08;49.88
72585;BME280;60618;40.084;32.908;2023-02-28T13:09:54;90299.72;;;14.07;49.60
72585;BME280;60618;40.084;32.908;2023-02-28T13:12:22;90298.66;;;13.99;49.14
72585;BME280;60618;40.084;32.908;2023-02-28T13:14:50;90300.25;;;13.85;49.12
72585;BME280;60618;40.084;32.908;2023-02-28T13:17:26;90296.44;;;13.98;48.93
72585;BME280;60618;40.084;32.908;2023-02-28T13:24:54;90284.06;;;14.00;49.21
72585;BME280;60618;40.084;32.908;2023-02-28T13:29:53;90292.13;;;13.80;49.21
72585;BME280;60618;40.084;32.908;2023-02-28T13:42:34;90267.63;;;13.61;50.19
72585;BME280;60618;40.084;32.908;2023-02-28T13:47:39;90258.38;;;13.62;50.50
72585;BME280;60618;40.084;32.908;2023-02-28T13:50:29;90256.44;;;13.62;49.72
72585;BME280;60618;40.084;32.908;2023-02-28T13:53:24;90256.38;;;13.57;49.95
72585;BME280;60618;40.084;32.908;2023-02-28T13:56:09;90258.53;;;13.53;50.11
72585;BME280;60618;40.084;32.908;2023-02-28T13:58:55;90254.03;;;13.44;50.03
72585;BME280;60618;40.084;32.908;2023-02-28T14:01:35;90245.81;;;13.48;51.02
72585;BME280;60618;40.084;32.908;2023-02-28T14:06:49;90235.78;;;13.43;51.34
72585;BME280;60618;40.084;32.908;2023-02-28T14:11:56;90229.50;;;13.46;51.77
72585;BME280;60618;40.084;32.908;2023-02-28T14:17:14;90227.75;;;13.43;50.34
72585;BME280;60618;40.084;32.908;2023-02-28T14:19:50;90232.06;;;13.34;51.39
72585;BME280;60618;40.084;32.908;2023-02-28T14:22:37;90228.88;;;13.30;51.47
72585;BME280;60618;40.084;32.908;2023-02-28T14:31:06;90226.69;;;13.14;52.40
72585;BME280;60618;40.084;32.908;2023-02-28T14:36:40;90231.09;;;13.17;52.36
72585;BME280;60618;40.084;32.908;2023-02-28T14:39:20;90230.59;;;13.13;53.74
72585;BME280;60618;40.084;32.908;2023-02-28T14:41:48;90230.84;;;13.15;53.62
72585;BME280;60618;40.084;32.908;2023-02-28T14:44:18;90235.66;;;13.11;53.66
72585;BME280;60618;40.084;32.908;2023-02-28T14:46:48;90225.16;;;13.07;53.81
72585;BME280;60618;40.084;32.908;2023-02-28T14:49:27;90221.63;;;13.37;52.78
72585;BME280;60618;40.084;32.908;2023-02-28T14:52:22;90225.59;;;13.47;52.12
72585;BME280;60618;40.084;32.908;2023-02-28T14:55:04;90223.91;;;13.70;51.17
72585;BME280;60618;40.084;32.908;2023-02-28T14:57:34;90229.88;;;13.59;50.81
72585;BME280;60618;40.084;32.908;2023-02-28T15:00:16;90237.09;;;13.53;50.64
72585;BME280;60618;40.084;32.908;2023-02-28T15:02:43;90239.81;;;13.32;51.71
72585;BME280;60618;40.084;32.908;2023-02-28T15:07:40;90234.00;;;13.34;51.06
72585;BME280;60618;40.084;32.908;2023-02-28T15:10:19;90233.88;;;13.23;52.16
72585;BME280;60618;40.084;32.908;2023-02-28T15:15:20;90240.22;;;13.05;53.43
72585;BME280;60618;40.084;32.908;2023-02-28T15:18:02;90238.66;;;13.19;52.80
72585;BME280;60618;40.084;32.908;2023-02-28T15:20:33;90241.28;;;13.13;52.81
72585;BME280;60618;40.084;32.908;2023-02-28T15:23:01;90234.91;;;13.11;53.04
72585;BME280;60618;40.084;32.908;2023-02-28T15:25:28;90234.66;;;12.88;53.77
72585;BME280;60618;40.084;32.908;2023-02-28T15:27:56;90237.06;;;13.06;53.86
72585;BME280;60618;40.084;32.908;2023-02-28T15:30:28;90244.34;;;13.06;53.98
72585;BME280;60618;40.084;32.908;2023-02-28T15:35:38;90239.59;;;12.95;55.13
72585;BME280;60618;40.084;32.908;2023-02-28T15:38:26;90243.91;;;12.52;58.62